Arc Narino — 5KMY — position and weather

sailwx.info

Track history (hours):
 
Tides and Currents Weather Stations Pressure Air Temp Water Temp Dewpoint Dewpoint Depression Visibility Wind Speed Wind Dir Waves Ship Positions

Arc Narino

Last reported at 2017-Dec-18 18:50 UTC. Time now 2018-Jan-23 04:25 UTC.
Position N 09°22' W 079°56'.
Warning: this ship's position is 35 days out of date.

Length 78 m.

MMSI: 730151050.

Date/timePositionNaut miles runAvg speedWind from/ knotsBaromVisibWave heightAir tempDewpointWater temp
2017-Dec-18 18:50N 09°22' W 079°56'0 0.0
2017-Dec-18 18:29N 09°22' W 079°56'0 0.1
2017-Dec-18 17:59N 09°22' W 079°56'0 0.1
2017-Dec-18 17:29N 09°22' W 079°56'0 0.0
2017-Dec-18 16:59N 09°22' W 079°56'0 0.0
2017-Dec-18 16:26N 09°22' W 079°56'0 0.0
2017-Dec-18 15:59N 09°22' W 079°56'0 0.0
2017-Dec-18 15:29N 09°22' W 079°56'0 0.0
2017-Dec-18 14:59N 09°22' W 079°56'0 0.0
2017-Dec-18 14:29N 09°22' W 079°56'0 0.0
2017-Dec-18 13:59N 09°22' W 079°56'0 0.0
2017-Dec-18 13:29N 09°22' W 079°56'0 0.0
2017-Dec-18 12:59N 09°22' W 079°56'0 0.0
2017-Dec-18 12:29N 09°22' W 079°56'0 0.0
2017-Dec-18 11:59N 09°22' W 079°56'0 0.0
2017-Dec-18 11:29N 09°22' W 079°56'0 0.0
2017-Dec-18 10:59N 09°22' W 079°56'0 0.0
2017-Dec-18 10:29N 09°22' W 079°56'0 0.0
2017-Dec-18 09:59N 09°22' W 079°56'0 0.0
2017-Dec-18 09:29N 09°22' W 079°56'0 0.0
2017-Dec-18 08:59N 09°22' W 079°56'0 0.0
2017-Dec-18 08:29N 09°22' W 079°56'0 0.0
2017-Dec-18 07:59N 09°22' W 079°56'0 0.0
2017-Dec-18 07:29N 09°22' W 079°56'0 0.0
2017-Dec-18 06:59N 09°22' W 079°56'0 0.0
2017-Dec-18 06:29N 09°22' W 079°56'0 0.0
2017-Dec-18 05:59N 09°22' W 079°56'0 0.0
2017-Dec-18 05:29N 09°22' W 079°56'0 0.0
2017-Dec-18 04:59N 09°22' W 079°56'0 0.0
2017-Dec-18 04:29N 09°22' W 079°56'0 0.0
2017-Dec-18 03:59N 09°22' W 079°56'0 0.0
2017-Dec-18 03:29N 09°22' W 079°56'0 0.0
2017-Dec-18 02:59N 09°22' W 079°56'0 0.0
2017-Dec-18 02:29N 09°22' W 079°56'0 0.0
2017-Dec-18 01:59N 09°22' W 079°56'0 0.0
2017-Dec-18 01:29N 09°22' W 079°56'0 0.0
2017-Dec-18 00:59N 09°22' W 079°56'0 0.0
2017-Dec-18 00:29N 09°22' W 079°56'0 0.0
2017-Dec-17 23:59N 09°22' W 079°56'0 0.0
2017-Dec-17 23:29N 09°22' W 079°56'0 0.0
2017-Dec-17 22:59N 09°22' W 079°56'0 0.0
2017-Dec-17 22:29N 09°22' W 079°56'0 0.0
2017-Dec-17 21:59N 09°22' W 079°56'0 0.0
2017-Dec-17 21:31N 09°22' W 079°56'0 0.4
2017-Dec-17 21:00N 09°22' W 079°56'3 6.5
2017-Dec-17 20:30N 09°25' W 079°55'611.4
2017-Dec-17 19:57N 09°31' W 079°53'711.7
2017-Dec-17 19:22N 09°38' W 079°51'25010.2
2017-Dec-16 18:46N 10°18' W 075°40'311.0
2017-Dec-16 18:30N 10°19' W 075°37'3 6.6
2017-Dec-16 18:00N 10°19' W 075°34'3 6.5
2017-Dec-16 17:30N 10°22' W 075°32'3 5.1
2017-Dec-16 16:54N 10°25' W 075°33'0 0.1
2017-Dec-16 16:18N 10°25' W 075°33'0 0.0
2017-Dec-16 15:54N 10°25' W 075°33'0 0.0
2017-Dec-16 15:24N 10°25' W 075°33'0 0.0
2017-Dec-16 15:00N 10°25' W 075°33'0 0.0
2017-Dec-16 14:06N 10°25' W 075°33'0 0.0
2017-Dec-16 14:00N 10°25' W 075°33'0 0.0
2017-Dec-16 13:30N 10°25' W 075°33'0 0.0
2017-Dec-16 13:00N 10°25' W 075°33'0 0.0
2017-Dec-16 12:26N 10°25' W 075°33'0 0.0
2017-Dec-16 11:59N 10°25' W 075°33'  
Track history (hours):
 
Tides and Currents Weather Stations Pressure Air Temp Water Temp Dewpoint Dewpoint Depression Visibility Wind Speed Wind Dir Waves Ship Positions

Arc Narino

Last reported at 2017-Dec-18 18:50 UTC. Time now 2018-Jan-23 04:25 UTC.
Position N 09°22' W 079°56'.
Warning: this ship's position is 35 days out of date.

Length 78 m.

MMSI: 730151050.

Date/timePositionNaut miles runAvg speedWind from/ knotsBaromVisibWave heightAir tempDewpointWater temp
2017-Dec-18 18:50N 09°22' W 079°56'0 0.0
2017-Dec-18 18:29N 09°22' W 079°56'0 0.1
2017-Dec-18 17:59N 09°22' W 079°56'0 0.1
2017-Dec-18 17:29N 09°22' W 079°56'0 0.0
2017-Dec-18 16:59N 09°22' W 079°56'0 0.0
2017-Dec-18 16:26N 09°22' W 079°56'0 0.0
2017-Dec-18 15:59N 09°22' W 079°56'0 0.0
2017-Dec-18 15:29N 09°22' W 079°56'0 0.0
2017-Dec-18 14:59N 09°22' W 079°56'0 0.0
2017-Dec-18 14:29N 09°22' W 079°56'0 0.0
2017-Dec-18 13:59N 09°22' W 079°56'0 0.0
2017-Dec-18 13:29N 09°22' W 079°56'0 0.0
2017-Dec-18 12:59N 09°22' W 079°56'0 0.0
2017-Dec-18 12:29N 09°22' W 079°56'0 0.0
2017-Dec-18 11:59N 09°22' W 079°56'0 0.0
2017-Dec-18 11:29N 09°22' W 079°56'0 0.0
2017-Dec-18 10:59N 09°22' W 079°56'0 0.0
2017-Dec-18 10:29N 09°22' W 079°56'0 0.0
2017-Dec-18 09:59N 09°22' W 079°56'0 0.0
2017-Dec-18 09:29N 09°22' W 079°56'0 0.0
2017-Dec-18 08:59N 09°22' W 079°56'0 0.0
2017-Dec-18 08:29N 09°22' W 079°56'0 0.0
2017-Dec-18 07:59N 09°22' W 079°56'0 0.0
2017-Dec-18 07:29N 09°22' W 079°56'0 0.0
2017-Dec-18 06:59N 09°22' W 079°56'0 0.0
2017-Dec-18 06:29N 09°22' W 079°56'0 0.0
2017-Dec-18 05:59N 09°22' W 079°56'0 0.0
2017-Dec-18 05:29N 09°22' W 079°56'0 0.0
2017-Dec-18 04:59N 09°22' W 079°56'0 0.0
2017-Dec-18 04:29N 09°22' W 079°56'0 0.0
2017-Dec-18 03:59N 09°22' W 079°56'0 0.0
2017-Dec-18 03:29N 09°22' W 079°56'0 0.0
2017-Dec-18 02:59N 09°22' W 079°56'0 0.0
2017-Dec-18 02:29N 09°22' W 079°56'0 0.0
2017-Dec-18 01:59N 09°22' W 079°56'0 0.0
2017-Dec-18 01:29N 09°22' W 079°56'0 0.0
2017-Dec-18 00:59N 09°22' W 079°56'0 0.0
2017-Dec-18 00:29N 09°22' W 079°56'0 0.0
2017-Dec-17 23:59N 09°22' W 079°56'0 0.0
2017-Dec-17 23:29N 09°22' W 079°56'0 0.0
2017-Dec-17 22:59N 09°22' W 079°56'0 0.0
2017-Dec-17 22:29N 09°22' W 079°56'0 0.0
2017-Dec-17 21:59N 09°22' W 079°56'0 0.0
2017-Dec-17 21:31N 09°22' W 079°56'0 0.4
2017-Dec-17 21:00N 09°22' W 079°56'3 6.5
2017-Dec-17 20:30N 09°25' W 079°55'611.4
2017-Dec-17 19:57N 09°31' W 079°53'711.7
2017-Dec-17 19:22N 09°38' W 079°51'25010.2
2017-Dec-16 18:46N 10°18' W 075°40'311.0
2017-Dec-16 18:30N 10°19' W 075°37'3 6.6
2017-Dec-16 18:00N 10°19' W 075°34'3 6.5
2017-Dec-16 17:30N 10°22' W 075°32'3 5.1
2017-Dec-16 16:54N 10°25' W 075°33'0 0.1
2017-Dec-16 16:18N 10°25' W 075°33'0 0.0
2017-Dec-16 15:54N 10°25' W 075°33'0 0.0
2017-Dec-16 15:24N 10°25' W 075°33'0 0.0
2017-Dec-16 15:00N 10°25' W 075°33'0 0.0
2017-Dec-16 14:06N 10°25' W 075°33'0 0.0
2017-Dec-16 14:00N 10°25' W 075°33'0 0.0
2017-Dec-16 13:30N 10°25' W 075°33'0 0.0
2017-Dec-16 13:00N 10°25' W 075°33'0 0.0
2017-Dec-16 12:26N 10°25' W 075°33'0 0.0
2017-Dec-16 11:59N 10°25' W 075°33'  

Dump ship's entire track history